Cap Theodora — SVAM5 — position and weather

sailwx.info

Track history (hours):
 
Tides and Currents Weather Stations Pressure Air Temp Water Temp Dewpoint Dewpoint Depression Visibility Wind Speed Wind Dir Waves Ship Positions

Cap Theodora

Last reported at 2014-Sep-14 17:33 UTC. Time now 2014-Sep-17 19:39 UTC.
Position N 38°28' W 030°23'.

Length 274 m; draft 15.5 m.

Type: Tanker. MMSI: 240840000.

Date/timePositionNaut miles runAvg speedWind from/ knotsBaromVisibWave heightAir tempDewpointWater temp
2014-Sep-14 17:33N 38°28' W 030°23'1414.0
2014-Sep-14 16:33N 38°25' W 030°06'1414.3
2014-Sep-14 15:33N 38°21' W 029°48'1414.3
2014-Sep-14 14:33N 38°18' W 029°31'1414.2
2014-Sep-14 13:33N 38°14' W 029°13'1514.7
2014-Sep-14 12:33N 38°11' W 028°55'1514.9
2014-Sep-14 11:33N 38°07' W 028°37'1514.9
2014-Sep-14 10:33N 38°03' W 028°19'1514.6
2014-Sep-14 09:33N 37°60' W 028°01'1414.3
2014-Sep-14 08:33N 37°56' W 027°43'1514.6
2014-Sep-14 07:33N 37°53' W 027°25'1514.7
2014-Sep-14 06:33N 37°49' W 027°07'1413.9
2014-Sep-14 05:34N 37°46' W 026°50'1414.1
2014-Sep-14 04:33N 37°42' W 026°33'1413.6
2014-Sep-14 03:33N 37°38' W 026°16'1413.6
2014-Sep-14 02:33N 37°35' W 025°59'1414.2
2014-Sep-14 01:33N 37°32' W 025°42'5614.0
2014-Sep-13 21:33N 37°25' W 024°32'1313.1
2014-Sep-13 20:33N 37°24' W 024°16'1413.6
2014-Sep-13 19:33N 37°21' W 023°59'1414.0
2014-Sep-13 18:33N 37°20' W 023°41'  
2014-Sep-11 01:30N 35°59' W 005°31'  
2014-Sep-08 07:28N 35°58' W 000°13'17 5.2
2014-Sep-08 04:14N 36°05' W 000°32'9 9.2
2014-Sep-08 03:17N 36°06' W 000°43'9 8.9
2014-Sep-08 02:13N 36°06' W 000°55'7 9.1
2014-Sep-08 01:28N 36°06' W 001°03'18 9.0
2014-Sep-07 23:27N 36°07' W 001°25'17 9.2
2014-Sep-07 21:33N 36°08' W 001°47'9 9.5
2014-Sep-07 20:34N 36°08' W 001°59'9 9.1
2014-Sep-07 19:34N 36°08' W 002°10'5 5.0
2014-Sep-07 18:31N 36°03' W 002°07'11 5.5
2014-Sep-07 16:33N 35°58' W 001°56'7 5.2
2014-Sep-07 15:17N 35°55' W 001°48'9 4.9
2014-Sep-07 13:32N 35°52' W 001°39'2 2.5
2014-Sep-07 12:33N 35°54' W 001°41'4 3.9
2014-Sep-07 11:30N 35°55' W 001°46'4 3.8
2014-Sep-07 10:33N 35°57' W 001°50'4 3.8
2014-Sep-07 09:31N 35°58' W 001°54'3 3.6
2014-Sep-07 08:33N 35°58' W 001°59'11 4.7
2014-Sep-07 06:14N 35°59' W 002°12'1 1.7
2014-Sep-07 05:25N 35°59' W 002°10'2 2.5
2014-Sep-07 04:34N 35°59' W 002°13'2 2.3
2014-Sep-07 03:31N 35°59' W 002°16'8 2.0
2014-Sep-06 23:31N 35°57' W 002°26'2 1.7
2014-Sep-06 22:31N 35°56' W 002°28'4 1.5
2014-Sep-06 19:34N 35°55' W 002°33'1 1.4
2014-Sep-06 18:33N 35°56' W 002°35'1 1.3
2014-Sep-06 17:33N 35°56' W 002°36'1 1.3
2014-Sep-06 16:25N 35°56' W 002°38'1 1.3
2014-Sep-06 15:25N 35°56' W 002°40'1 1.7
2014-Sep-06 14:33N 35°57' W 002°41'3 2.0
2014-Sep-06 13:12N 35°59' W 002°44'1 2.2
2014-Sep-06 12:32N 35°60' W 002°45'3 2.4
2014-Sep-06 11:16N 36°02' W 002°48'2 2.4
2014-Sep-06 10:34N 36°03' W 002°50'22 5.0
2014-Sep-06 06:04N 36°09' W 003°16'102 3.9
2014-Sep-05 04:15N 35°60' W 005°21'5812.4
2014-Sep-04 23:33N 35°54' W 006°33'9 8.7
2014-Sep-04 22:33N 35°54' W 006°43'36 8.8
2014-Sep-04 18:32N 35°54' W 007°27'  
Track history (hours):
 
Tides and Currents Weather Stations Pressure Air Temp Water Temp Dewpoint Dewpoint Depression Visibility Wind Speed Wind Dir Waves Ship Positions

Cap Theodora

Last reported at 2014-Sep-14 17:33 UTC. Time now 2014-Sep-17 19:39 UTC.
Position N 38°28' W 030°23'.

Length 274 m; draft 15.5 m.

Type: Tanker. MMSI: 240840000.

Date/timePositionNaut miles runAvg speedWind from/ knotsBaromVisibWave heightAir tempDewpointWater temp
2014-Sep-14 17:33N 38°28' W 030°23'1414.0
2014-Sep-14 16:33N 38°25' W 030°06'1414.3
2014-Sep-14 15:33N 38°21' W 029°48'1414.3
2014-Sep-14 14:33N 38°18' W 029°31'1414.2
2014-Sep-14 13:33N 38°14' W 029°13'1514.7
2014-Sep-14 12:33N 38°11' W 028°55'1514.9
2014-Sep-14 11:33N 38°07' W 028°37'1514.9
2014-Sep-14 10:33N 38°03' W 028°19'1514.6
2014-Sep-14 09:33N 37°60' W 028°01'1414.3
2014-Sep-14 08:33N 37°56' W 027°43'1514.6
2014-Sep-14 07:33N 37°53' W 027°25'1514.7
2014-Sep-14 06:33N 37°49' W 027°07'1413.9
2014-Sep-14 05:34N 37°46' W 026°50'1414.1
2014-Sep-14 04:33N 37°42' W 026°33'1413.6
2014-Sep-14 03:33N 37°38' W 026°16'1413.6
2014-Sep-14 02:33N 37°35' W 025°59'1414.2
2014-Sep-14 01:33N 37°32' W 025°42'5614.0
2014-Sep-13 21:33N 37°25' W 024°32'1313.1
2014-Sep-13 20:33N 37°24' W 024°16'1413.6
2014-Sep-13 19:33N 37°21' W 023°59'1414.0
2014-Sep-13 18:33N 37°20' W 023°41'  
2014-Sep-11 01:30N 35°59' W 005°31'  
2014-Sep-08 07:28N 35°58' W 000°13'17 5.2
2014-Sep-08 04:14N 36°05' W 000°32'9 9.2
2014-Sep-08 03:17N 36°06' W 000°43'9 8.9
2014-Sep-08 02:13N 36°06' W 000°55'7 9.1
2014-Sep-08 01:28N 36°06' W 001°03'18 9.0
2014-Sep-07 23:27N 36°07' W 001°25'17 9.2
2014-Sep-07 21:33N 36°08' W 001°47'9 9.5
2014-Sep-07 20:34N 36°08' W 001°59'9 9.1
2014-Sep-07 19:34N 36°08' W 002°10'5 5.0
2014-Sep-07 18:31N 36°03' W 002°07'11 5.5
2014-Sep-07 16:33N 35°58' W 001°56'7 5.2
2014-Sep-07 15:17N 35°55' W 001°48'9 4.9
2014-Sep-07 13:32N 35°52' W 001°39'2 2.5
2014-Sep-07 12:33N 35°54' W 001°41'4 3.9
2014-Sep-07 11:30N 35°55' W 001°46'4 3.8
2014-Sep-07 10:33N 35°57' W 001°50'4 3.8
2014-Sep-07 09:31N 35°58' W 001°54'3 3.6
2014-Sep-07 08:33N 35°58' W 001°59'11 4.7
2014-Sep-07 06:14N 35°59' W 002°12'1 1.7
2014-Sep-07 05:25N 35°59' W 002°10'2 2.5
2014-Sep-07 04:34N 35°59' W 002°13'2 2.3
2014-Sep-07 03:31N 35°59' W 002°16'8 2.0
2014-Sep-06 23:31N 35°57' W 002°26'2 1.7
2014-Sep-06 22:31N 35°56' W 002°28'4 1.5
2014-Sep-06 19:34N 35°55' W 002°33'1 1.4
2014-Sep-06 18:33N 35°56' W 002°35'1 1.3
2014-Sep-06 17:33N 35°56' W 002°36'1 1.3
2014-Sep-06 16:25N 35°56' W 002°38'1 1.3
2014-Sep-06 15:25N 35°56' W 002°40'1 1.7
2014-Sep-06 14:33N 35°57' W 002°41'3 2.0
2014-Sep-06 13:12N 35°59' W 002°44'1 2.2
2014-Sep-06 12:32N 35°60' W 002°45'3 2.4
2014-Sep-06 11:16N 36°02' W 002°48'2 2.4
2014-Sep-06 10:34N 36°03' W 002°50'22 5.0
2014-Sep-06 06:04N 36°09' W 003°16'102 3.9
2014-Sep-05 04:15N 35°60' W 005°21'5812.4
2014-Sep-04 23:33N 35°54' W 006°33'9 8.7
2014-Sep-04 22:33N 35°54' W 006°43'36 8.8
2014-Sep-04 18:32N 35°54' W 007°27'  

Dump ship's entire track history